createdAt,value
2023-05-06T00:00:39.767Z,14.33
2023-05-06T00:03:06.304Z,14.33
2023-05-06T00:05:32.842Z,14.31
2023-05-06T00:07:59.229Z,14.32
2023-05-06T00:10:25.821Z,14.31
2023-05-06T00:12:52.371Z,14.30
2023-05-06T00:15:18.913Z,14.27
2023-05-06T00:17:45.482Z,14.24
2023-05-06T00:20:12.083Z,14.21
2023-05-06T00:22:38.561Z,14.15
2023-05-06T00:25:05.640Z,14.12
2023-05-06T00:27:32.384Z,14.10
2023-05-06T00:29:58.844Z,14.03
2023-05-06T00:32:25.338Z,13.99
2023-05-06T00:34:51.821Z,13.94
2023-05-06T00:37:18.204Z,13.91
2023-05-06T00:39:44.569Z,13.87
2023-05-06T00:42:10.941Z,13.83
2023-05-06T00:44:37.430Z,13.80
2023-05-06T00:47:04.425Z,13.75
2023-05-06T00:49:31.221Z,13.72
2023-05-06T00:51:58.833Z,13.67
2023-05-06T00:54:26.276Z,13.63
2023-05-06T00:56:53.392Z,13.60
2023-05-06T00:59:19.955Z,13.58
2023-05-06T01:01:47.159Z,13.54
2023-05-06T01:04:13.672Z,13.52
2023-05-06T01:06:40.448Z,13.52
2023-05-06T01:09:29.790Z,13.51
2023-05-06T01:12:24.775Z,13.49
2023-05-06T01:15:01.363Z,13.46
2023-05-06T01:17:31.478Z,13.45
2023-05-06T01:19:59.656Z,13.41
2023-05-06T01:22:27.047Z,13.40
2023-05-06T01:24:53.526Z,13.37
2023-05-06T01:27:20.690Z,13.35
2023-05-06T01:29:47.912Z,13.34
2023-05-06T01:32:33.284Z,13.31
2023-05-06T01:35:24.165Z,13.29
2023-05-06T01:38:21.251Z,13.27
2023-05-06T01:40:54.261Z,13.25
2023-05-06T01:43:21.509Z,13.24
2023-05-06T01:45:53.208Z,13.19
2023-05-06T01:48:30.064Z,13.15
2023-05-06T01:50:56.776Z,13.09
2023-05-06T01:53:23.267Z,13.05
2023-05-06T01:55:49.733Z,13.03
2023-05-06T01:58:16.100Z,13.00
2023-05-06T02:00:42.659Z,12.94
2023-05-06T02:03:09.114Z,12.88
2023-05-06T02:05:35.835Z,12.84
2023-05-06T02:08:02.234Z,12.75
2023-05-06T02:10:28.679Z,12.73
2023-05-06T02:12:55.170Z,12.69
2023-05-06T02:15:21.736Z,12.68
2023-05-06T02:17:48.237Z,12.67
2023-05-06T02:20:14.706Z,12.67
2023-05-06T02:22:41.119Z,12.62
2023-05-06T02:25:08.922Z,12.59
2023-05-06T02:27:35.699Z,12.57
2023-05-06T02:30:02.908Z,12.56
2023-05-06T02:32:29.326Z,12.55
2023-05-06T02:34:55.797Z,12.54
2023-05-06T02:37:22.238Z,12.55
2023-05-06T02:39:48.649Z,12.56
2023-05-06T02:42:18.492Z,12.56
2023-05-06T02:44:44.986Z,12.55
2023-05-06T02:47:11.439Z,12.56
2023-05-06T02:49:37.969Z,12.55
2023-05-06T02:52:04.725Z,12.54
2023-05-06T02:54:31.145Z,12.52
2023-05-06T02:56:57.566Z,12.50
2023-05-06T02:59:24.036Z,12.47
2023-05-06T03:01:50.449Z,12.45
2023-05-06T03:04:16.908Z,12.43
2023-05-06T03:06:43.326Z,12.40
2023-05-06T03:09:09.866Z,12.40
2023-05-06T03:11:36.292Z,12.39
2023-05-06T03:14:02.739Z,12.34
2023-05-06T03:16:29.173Z,12.36
2023-05-06T03:18:55.678Z,12.37
2023-05-06T03:21:22.153Z,12.37
2023-05-06T03:23:48.608Z,12.35
2023-05-06T03:26:15.020Z,12.34
2023-05-06T03:28:42.974Z,12.33
2023-05-06T03:31:09.455Z,12.31
2023-05-06T03:33:36.553Z,12.29
2023-05-06T03:36:03.037Z,12.24
2023-05-06T03:38:29.445Z,12.19
2023-05-06T03:40:55.859Z,12.15
2023-05-06T03:43:22.268Z,12.12
2023-05-06T03:45:48.800Z,12.07
2023-05-06T03:48:15.386Z,12.04
2023-05-06T03:50:42.342Z,11.99
2023-05-06T03:53:08.831Z,11.97
2023-05-06T03:55:35.394Z,11.94
2023-05-06T03:58:01.863Z,11.92
2023-05-06T04:00:28.456Z,11.88
2023-05-06T04:02:54.964Z,11.86
2023-05-06T04:05:21.419Z,11.84
2023-05-06T04:07:47.791Z,11.81
2023-05-06T04:10:14.271Z,11.77
2023-05-06T04:12:40.681Z,11.74
2023-05-06T04:15:07.985Z,11.74
2023-05-06T04:17:34.512Z,11.72
2023-05-06T04:20:07.080Z,11.69
2023-05-06T04:22:33.486Z,11.66
2023-05-06T04:25:02.954Z,11.63
2023-05-06T04:27:29.830Z,11.60
2023-05-06T04:29:56.839Z,11.59
2023-05-06T04:32:25.273Z,11.56
2023-05-06T04:34:53.217Z,11.55
2023-05-06T04:37:21.036Z,11.55
2023-05-06T04:39:47.512Z,11.54
2023-05-06T04:42:14.837Z,11.54
2023-05-06T04:44:42.803Z,11.52
2023-05-06T04:47:09.622Z,11.52
2023-05-06T04:49:36.216Z,11.51
2023-05-06T04:52:02.649Z,11.51
2023-05-06T04:54:29.149Z,11.49
2023-05-06T04:56:55.691Z,11.47
2023-05-06T04:59:22.065Z,11.46
2023-05-06T05:01:48.567Z,11.45
2023-05-06T05:04:15.109Z,11.46
2023-05-06T05:06:41.595Z,11.47
2023-05-06T05:09:08.002Z,11.48
2023-05-06T05:11:37.554Z,11.51
2023-05-06T05:14:04.130Z,11.51
2023-05-06T05:16:30.905Z,11.54
2023-05-06T05:18:57.384Z,11.57
2023-05-06T05:21:23.839Z,11.58
2023-05-06T05:23:50.262Z,11.60
2023-05-06T05:26:16.753Z,11.63
2023-05-06T05:28:44.204Z,11.65
2023-05-06T05:31:10.969Z,11.70
2023-05-06T05:33:37.406Z,11.74
2023-05-06T05:36:04.480Z,11.80
2023-05-06T05:38:31.054Z,11.85
2023-05-06T05:40:57.459Z,11.93
2023-05-06T05:43:25.940Z,12.02
2023-05-06T05:45:52.380Z,12.11
2023-05-06T05:48:18.819Z,12.18
2023-05-06T05:50:45.961Z,12.27
2023-05-06T05:53:12.347Z,12.37
2023-05-06T05:55:38.789Z,12.49
2023-05-06T05:58:05.152Z,12.60
2023-05-06T06:00:31.703Z,12.72
2023-05-06T06:02:58.453Z,12.85
2023-05-06T06:05:25.073Z,12.95
2023-05-06T06:07:51.518Z,13.07
2023-05-06T06:10:18.020Z,13.18
2023-05-06T06:12:44.677Z,13.28
2023-05-06T06:15:11.814Z,13.37
2023-05-06T06:17:38.620Z,13.49
2023-05-06T06:20:05.943Z,13.58
2023-05-06T06:22:32.317Z,13.70
2023-05-06T06:24:58.704Z,13.80
2023-05-06T06:27:25.202Z,13.92
2023-05-06T06:29:51.587Z,14.02
2023-05-06T06:32:18.181Z,14.12
2023-05-06T06:34:44.592Z,14.23
2023-05-06T06:37:12.119Z,14.33
2023-05-06T06:39:38.513Z,14.45
2023-05-06T06:42:06.854Z,14.56
2023-05-06T06:44:34.204Z,14.70
2023-05-06T06:47:00.848Z,14.82
2023-05-06T06:49:27.509Z,14.95
2023-05-06T06:51:54.353Z,15.07
2023-05-06T06:54:20.799Z,15.18
2023-05-06T06:56:47.199Z,15.20
2023-05-06T06:59:13.631Z,15.33
2023-05-06T07:01:41.966Z,15.45
2023-05-06T07:04:10.520Z,15.48
2023-05-06T07:06:37.018Z,15.49
2023-05-06T07:09:03.678Z,15.52
2023-05-06T07:11:30.088Z,15.54
2023-05-06T07:13:56.481Z,15.57
2023-05-06T07:16:22.914Z,15.62
2023-05-06T07:18:50.642Z,15.70
2023-05-06T07:21:17.451Z,15.75
2023-05-06T07:23:43.838Z,15.81
2023-05-06T07:26:10.343Z,15.89
2023-05-06T07:28:36.705Z,15.98
2023-05-06T07:31:03.115Z,16.04
2023-05-06T07:33:29.486Z,16.13
2023-05-06T07:35:55.995Z,16.23
2023-05-06T07:38:22.911Z,16.32
2023-05-06T07:40:49.993Z,16.41
2023-05-06T07:43:16.491Z,16.50
2023-05-06T07:45:43.011Z,16.59
2023-05-06T07:48:09.880Z,16.69
2023-05-06T07:50:36.368Z,16.65
2023-05-06T07:53:03.958Z,16.63
2023-05-06T07:55:30.433Z,16.64
2023-05-06T07:57:56.901Z,16.78
2023-05-06T08:00:23.355Z,16.92
2023-05-06T08:02:49.982Z,17.03
2023-05-06T08:05:17.264Z,17.15
2023-05-06T08:07:43.834Z,17.32
2023-05-06T08:10:11.040Z,17.49
2023-05-06T08:12:38.234Z,17.70
2023-05-06T08:15:05.379Z,17.82
2023-05-06T08:17:31.859Z,17.89
2023-05-06T08:19:58.385Z,17.91
2023-05-06T08:22:24.832Z,17.95
2023-05-06T08:24:51.312Z,18.10
2023-05-06T08:27:17.744Z,18.26
2023-05-06T08:29:44.207Z,18.38
2023-05-06T08:32:10.723Z,18.38
2023-05-06T08:34:37.409Z,18.36
2023-05-06T08:37:04.244Z,18.36
2023-05-06T08:39:31.373Z,18.53
2023-05-06T08:41:59.575Z,18.68
2023-05-06T08:44:26.654Z,18.72
2023-05-06T08:46:53.533Z,18.93
2023-05-06T08:49:20.002Z,18.90
2023-05-06T08:51:51.429Z,19.03
2023-05-06T08:54:18.550Z,19.09
2023-05-06T08:56:53.335Z,19.05
2023-05-06T08:59:30.384Z,19.13
2023-05-06T09:01:57.123Z,19.14
2023-05-06T09:04:23.702Z,19.17
2023-05-06T09:06:50.110Z,19.19
2023-05-06T09:09:16.846Z,19.16
2023-05-06T09:11:43.380Z,19.07
2023-05-06T09:14:14.356Z,19.20
2023-05-06T09:16:44.631Z,19.31
2023-05-06T09:19:12.411Z,19.38
2023-05-06T09:21:41.131Z,19.46
2023-05-06T09:24:09.092Z,19.62
2023-05-06T09:26:37.131Z,19.85
2023-05-06T09:29:04.617Z,20.04
2023-05-06T09:31:31.279Z,20.20
2023-05-06T09:33:59.633Z,20.27
2023-05-06T09:36:28.254Z,20.43
2023-05-06T09:38:56.097Z,20.54
2023-05-06T09:41:25.270Z,20.61
2023-05-06T09:43:53.479Z,20.77
2023-05-06T09:46:22.459Z,20.86
2023-05-06T09:48:53.797Z,21.03
2023-05-06T09:51:21.275Z,21.07
2023-05-06T09:53:48.002Z,20.65
2023-05-06T09:56:15.688Z,20.52
2023-05-06T09:58:42.589Z,20.51
2023-05-06T10:01:09.496Z,20.63
2023-05-06T10:03:36.433Z,20.69
2023-05-06T10:06:06.002Z,20.71
2023-05-06T10:08:35.133Z,20.92
2023-05-06T10:11:02.128Z,21.00
2023-05-06T10:13:29.595Z,21.11
2023-05-06T10:15:56.264Z,21.30
2023-05-06T10:18:26.453Z,21.52
2023-05-06T10:20:54.033Z,21.76
2023-05-06T10:24:07.056Z,21.73
2023-05-06T10:26:37.030Z,21.83
2023-05-06T10:29:08.112Z,21.79
2023-05-06T10:31:35.320Z,21.93
2023-05-06T10:34:06.194Z,22.27
2023-05-06T10:36:36.260Z,22.46
2023-05-06T10:39:04.639Z,22.39
2023-05-06T10:41:35.475Z,22.29
2023-05-06T10:44:01.916Z,22.24
2023-05-06T10:46:29.874Z,22.20
2023-05-06T10:49:08.871Z,22.20
2023-05-06T10:51:36.372Z,22.09
2023-05-06T10:54:10.786Z,22.04
2023-05-06T10:56:58.906Z,22.01
2023-05-06T10:59:28.516Z,21.98
2023-05-06T11:01:57.277Z,22.00
2023-05-06T11:04:24.073Z,22.03
2023-05-06T11:06:53.022Z,21.94
2023-05-06T11:09:21.827Z,21.83
2023-05-06T11:12:09.763Z,21.84
2023-05-06T11:14:37.840Z,21.70
2023-05-06T11:17:09.956Z,21.58
2023-05-06T11:19:38.289Z,21.56
2023-05-06T11:22:06.392Z,21.56
2023-05-06T11:24:43.864Z,21.44
2023-05-06T11:27:11.092Z,21.38
2023-05-06T11:29:38.013Z,21.33
2023-05-06T11:32:17.508Z,21.37
2023-05-06T11:34:44.782Z,21.34
2023-05-06T11:37:11.220Z,21.34
2023-05-06T11:39:40.733Z,21.33
2023-05-06T11:42:08.960Z,21.36
2023-05-06T11:44:39.494Z,21.43
2023-05-06T11:47:08.153Z,21.39
2023-05-06T11:49:41.596Z,21.41
2023-05-06T11:52:12.436Z,21.36
2023-05-06T11:54:40.629Z,21.43
2023-05-06T11:57:07.728Z,21.55
2023-05-06T11:59:39.518Z,21.60
2023-05-06T12:02:12.803Z,21.67
2023-05-06T12:04:43.888Z,21.60
2023-05-06T12:07:12.728Z,21.66
2023-05-06T12:09:42.870Z,21.68
2023-05-06T12:12:10.764Z,21.75
2023-05-06T12:14:38.221Z,21.84
2023-05-06T12:17:05.351Z,21.93
2023-05-06T12:19:32.103Z,22.01
2023-05-06T12:22:21.391Z,22.08
2023-05-06T12:24:48.690Z,22.09
2023-05-06T12:27:28.389Z,22.14
2023-05-06T12:29:54.769Z,22.07
2023-05-06T12:32:21.282Z,22.02
2023-05-06T12:34:47.723Z,22.04
2023-05-06T12:37:25.347Z,22.03
2023-05-06T12:39:51.771Z,21.95
2023-05-06T12:42:22.276Z,21.88
2023-05-06T12:44:49.243Z,21.79
2023-05-06T12:47:21.284Z,21.73
2023-05-06T12:50:08.330Z,21.67
2023-05-06T12:52:44.143Z,21.63
2023-05-06T12:55:10.524Z,21.64
2023-05-06T12:57:37.033Z,21.62
2023-05-06T13:00:03.953Z,21.61
2023-05-06T13:02:30.485Z,21.54
2023-05-06T13:04:56.937Z,21.45
2023-05-06T13:07:23.410Z,21.47
2023-05-06T13:09:49.855Z,21.51
2023-05-06T13:12:16.828Z,21.53
2023-05-06T13:14:43.236Z,21.53
2023-05-06T13:17:09.881Z,21.50
2023-05-06T13:19:36.571Z,21.47
2023-05-06T13:22:03.043Z,21.45
2023-05-06T13:24:29.810Z,21.45
2023-05-06T13:26:57.109Z,21.44
2023-05-06T13:29:24.389Z,21.43
2023-05-06T13:31:51.519Z,21.38
2023-05-06T13:34:18.184Z,21.32
2023-05-06T13:36:44.578Z,21.27
2023-05-06T13:39:11.159Z,21.36
2023-05-06T13:41:37.554Z,21.40
2023-05-06T13:44:04.140Z,21.48
2023-05-06T13:46:31.363Z,21.56
2023-05-06T13:48:57.825Z,21.65
2023-05-06T13:51:27.423Z,21.70
2023-05-06T13:53:53.867Z,21.74
2023-05-06T13:56:21.441Z,21.77
2023-05-06T13:58:47.946Z,21.75
2023-05-06T14:01:14.654Z,21.75
2023-05-06T14:03:41.077Z,21.73
2023-05-06T14:06:08.589Z,21.73
2023-05-06T14:08:35.131Z,21.71
2023-05-06T14:11:01.838Z,21.68
2023-05-06T14:13:31.813Z,21.66
2023-05-06T14:15:59.413Z,21.59
2023-05-06T14:18:27.015Z,21.55
2023-05-06T14:20:53.895Z,21.40
2023-05-06T14:23:20.367Z,21.26
2023-05-06T14:25:46.861Z,20.92
2023-05-06T14:28:14.282Z,20.66
2023-05-06T14:30:40.699Z,20.37
2023-05-06T14:33:08.269Z,20.10
2023-05-06T14:35:34.793Z,19.83
2023-05-06T14:38:01.492Z,19.53
2023-05-06T14:40:28.046Z,19.19
2023-05-06T14:42:54.442Z,18.96
2023-05-06T14:45:21.154Z,18.72
2023-05-06T14:47:47.661Z,18.50
2023-05-06T14:50:14.240Z,18.25
2023-05-06T14:52:41.441Z,18.07
2023-05-06T14:55:10.166Z,17.93
2023-05-06T14:57:37.018Z,17.80
2023-05-06T15:00:05.356Z,17.73
2023-05-06T15:02:31.829Z,17.65
2023-05-06T15:04:58.299Z,17.62
2023-05-06T15:07:24.790Z,17.58
2023-05-06T15:09:51.221Z,17.57
2023-05-06T15:12:17.801Z,17.53
2023-05-06T15:14:44.241Z,17.50
2023-05-06T15:17:10.665Z,17.47
2023-05-06T15:19:37.708Z,17.52
2023-05-06T15:22:04.421Z,17.56
2023-05-06T15:24:30.890Z,17.61
2023-05-06T15:26:57.318Z,17.67
2023-05-06T15:29:24.622Z,17.71
2023-05-06T15:31:51.089Z,17.73
2023-05-06T15:34:20.087Z,17.76
2023-05-06T15:36:52.552Z,17.76
2023-05-06T15:39:19.625Z,17.76
2023-05-06T15:41:47.528Z,17.73
2023-05-06T15:44:16.318Z,17.76
2023-05-06T15:46:43.141Z,17.76
2023-05-06T15:49:33.678Z,17.73
2023-05-06T15:51:59.120Z,17.70
2023-05-06T15:54:27.255Z,17.70
2023-05-06T15:56:53.738Z,17.68
2023-05-06T15:59:20.182Z,17.64
2023-05-06T16:04:16.416Z,17.53
2023-05-06T16:06:42.990Z,17.46
2023-05-06T16:09:10.435Z,17.45
2023-05-06T16:11:36.901Z,17.43
2023-05-06T16:14:03.780Z,17.43
2023-05-06T16:16:30.494Z,17.38
2023-05-06T16:18:57.019Z,17.40
2023-05-06T16:21:23.443Z,17.44
2023-05-06T16:23:49.828Z,17.46
2023-05-06T16:26:16.690Z,17.49
2023-05-06T16:28:43.388Z,17.52
2023-05-06T16:31:09.805Z,17.52
2023-05-06T16:33:36.305Z,17.50
2023-05-06T16:36:03.353Z,17.49
2023-05-06T16:38:29.768Z,17.47
2023-05-06T16:40:56.222Z,17.48
2023-05-06T16:43:22.720Z,17.49
2023-05-06T16:45:49.143Z,17.51
2023-05-06T16:48:15.801Z,17.54
2023-05-06T16:50:42.579Z,17.60
2023-05-06T16:53:09.122Z,17.76
2023-05-06T16:55:35.758Z,18.13
2023-05-06T16:58:02.360Z,18.78
2023-05-06T17:00:29.108Z,19.12
2023-05-06T17:02:55.823Z,19.43
2023-05-06T17:05:22.538Z,20.16
2023-05-06T17:07:50.164Z,20.70
2023-05-06T17:10:17.168Z,21.43
2023-05-06T17:12:43.653Z,21.58
2023-05-06T17:15:10.471Z,21.58
2023-05-06T17:17:36.997Z,21.49
2023-05-06T17:20:05.185Z,21.58
2023-05-06T17:22:31.701Z,21.72
2023-05-06T17:24:58.106Z,21.78
2023-05-06T17:27:24.684Z,21.72
2023-05-06T17:29:51.635Z,21.79
2023-05-06T17:32:19.766Z,21.68
2023-05-06T17:34:46.431Z,21.72
2023-05-06T17:37:13.030Z,21.75
2023-05-06T17:39:39.887Z,21.74
2023-05-06T17:42:06.424Z,21.67
2023-05-06T17:44:35.225Z,21.97
2023-05-06T17:47:01.864Z,21.89
2023-05-06T17:49:28.334Z,21.71
2023-05-06T17:51:55.960Z,21.50
2023-05-06T17:54:22.893Z,21.26
2023-05-06T17:56:50.717Z,21.05
2023-05-06T17:59:19.557Z,20.88
2023-05-06T18:01:46.501Z,20.65
2023-05-06T18:04:13.333Z,20.36
2023-05-06T18:06:43.058Z,20.07
2023-05-06T18:09:10.359Z,19.88
2023-05-06T18:11:38.295Z,19.69
2023-05-06T18:14:05.558Z,19.49
2023-05-06T18:16:32.129Z,19.32
2023-05-06T18:19:00.778Z,19.18
2023-05-06T18:21:27.818Z,19.04
2023-05-06T18:23:58.811Z,18.86
2023-05-06T18:29:04.123Z,18.60
2023-05-06T18:31:30.653Z,18.47
2023-05-06T18:33:57.095Z,18.38
2023-05-06T18:36:23.651Z,18.24
2023-05-06T18:38:50.144Z,18.13
2023-05-06T18:41:16.579Z,18.02
2023-05-06T18:43:43.015Z,17.92
2023-05-06T18:46:09.539Z,17.84
2023-05-06T18:48:36.111Z,17.75
2023-05-06T18:51:12.612Z,17.71
2023-05-06T18:53:39.545Z,17.64
2023-05-06T18:56:07.585Z,17.60
2023-05-06T18:58:38.372Z,17.55
2023-05-06T19:01:05.732Z,17.50
2023-05-06T19:03:33.439Z,17.40
2023-05-06T19:06:02.534Z,17.37
2023-05-06T19:08:29.580Z,17.31
2023-05-06T19:10:56.335Z,17.26
2023-05-06T19:13:23.100Z,17.26
2023-05-06T19:15:49.704Z,17.61
2023-05-06T19:18:16.757Z,18.41
2023-05-06T19:20:43.312Z,19.09
2023-05-06T19:23:10.205Z,19.46
2023-05-06T19:25:38.315Z,19.54
2023-05-06T19:28:06.280Z,19.31
2023-05-06T19:30:34.778Z,19.14
2023-05-06T19:33:02.357Z,18.85
2023-05-06T19:35:29.094Z,18.59
2023-05-06T19:37:56.062Z,18.30
2023-05-06T19:40:22.800Z,18.13
2023-05-06T19:42:49.373Z,17.92
2023-05-06T19:45:18.144Z,17.73
2023-05-06T19:47:45.758Z,17.58
2023-05-06T19:50:12.945Z,17.45
2023-05-06T19:52:39.900Z,17.32
2023-05-06T19:55:06.916Z,17.20
2023-05-06T19:57:33.877Z,17.09
2023-05-06T20:00:05.016Z,17.01
2023-05-06T20:02:32.485Z,16.88
2023-05-06T20:05:00.306Z,16.78
2023-05-06T20:07:27.667Z,16.68
2023-05-06T20:09:55.960Z,16.59
2023-05-06T20:12:23.576Z,16.53
2023-05-06T20:14:50.170Z,16.45
2023-05-06T20:17:16.834Z,16.39
2023-05-06T20:19:43.993Z,16.28
2023-05-06T20:22:10.483Z,16.22
2023-05-06T20:24:37.600Z,16.20
2023-05-06T20:27:04.058Z,16.17
2023-05-06T20:29:30.751Z,16.11
2023-05-06T20:31:57.436Z,16.10
2023-05-06T20:34:24.014Z,16.07
2023-05-06T20:36:50.518Z,16.04
2023-05-06T20:39:17.027Z,16.01
2023-05-06T20:41:43.403Z,15.97
2023-05-06T20:44:09.839Z,15.92
2023-05-06T20:46:36.401Z,15.88
2023-05-06T20:49:02.862Z,15.84
2023-05-06T20:51:29.262Z,15.80
2023-05-06T20:53:56.484Z,15.76
2023-05-06T20:56:24.902Z,15.72
2023-05-06T20:58:55.460Z,15.69
2023-05-06T21:01:23.854Z,15.66
2023-05-06T21:03:50.597Z,15.62
2023-05-06T21:06:18.212Z,15.59
2023-05-06T21:08:46.262Z,15.56
2023-05-06T21:11:13.329Z,15.54
2023-05-06T21:13:40.646Z,15.51
2023-05-06T21:16:07.060Z,15.49
2023-05-06T21:18:33.551Z,15.42
2023-05-06T21:21:00.185Z,15.39
2023-05-06T21:23:26.799Z,15.36
2023-05-06T21:25:53.257Z,15.32
2023-05-06T21:28:19.668Z,15.30
2023-05-06T21:30:46.162Z,15.28
2023-05-06T21:33:12.703Z,15.23
2023-05-06T21:35:39.186Z,15.20
2023-05-06T21:38:05.878Z,15.17
2023-05-06T21:40:32.393Z,15.15
2023-05-06T21:42:58.898Z,15.10
2023-05-06T21:45:25.355Z,15.07
2023-05-06T21:47:51.844Z,15.03
2023-05-06T21:50:18.263Z,15.00
2023-05-06T21:52:44.660Z,14.97
2023-05-06T21:55:11.501Z,14.94
2023-05-06T21:57:38.758Z,14.89
2023-05-06T22:00:12.090Z,14.88
2023-05-06T22:02:39.773Z,14.86
2023-05-06T22:05:07.765Z,14.85
2023-05-06T22:07:34.496Z,14.82
2023-05-06T22:10:00.882Z,14.79
2023-05-06T22:12:27.513Z,14.78
2023-05-06T22:14:53.909Z,14.73
2023-05-06T22:17:20.440Z,14.72
2023-05-06T22:19:46.948Z,14.68
2023-05-06T22:22:16.457Z,14.64
2023-05-06T22:24:45.700Z,14.62
2023-05-06T22:27:12.225Z,14.59
2023-05-06T22:29:38.640Z,14.58
2023-05-06T22:32:06.278Z,14.56
2023-05-06T22:34:32.980Z,14.54
2023-05-06T22:37:00.984Z,14.53
2023-05-06T22:39:27.723Z,14.52
2023-05-06T22:41:54.101Z,14.52
2023-05-06T22:44:21.032Z,14.50
2023-05-06T22:46:47.514Z,14.49
2023-05-06T22:49:15.921Z,14.47
2023-05-06T22:51:42.552Z,14.47
2023-05-06T22:54:09.022Z,14.46
2023-05-06T22:56:35.467Z,14.45
2023-05-06T22:59:01.893Z,14.46
2023-05-06T23:01:32.095Z,14.44
2023-05-06T23:03:59.666Z,14.42
2023-05-06T23:06:29.334Z,14.42
2023-05-06T23:08:55.758Z,14.37
2023-05-06T23:11:22.255Z,14.38
2023-05-06T23:13:48.728Z,14.37
2023-05-06T23:16:15.649Z,14.37
2023-05-06T23:18:42.644Z,14.34
2023-05-06T23:21:09.367Z,14.35
2023-05-06T23:23:35.814Z,14.34
2023-05-06T23:26:02.333Z,14.31
2023-05-06T23:28:28.972Z,14.31
2023-05-06T23:30:55.581Z,14.30
2023-05-06T23:33:22.351Z,14.29
2023-05-06T23:35:48.751Z,14.28
2023-05-06T23:38:15.240Z,14.24
2023-05-06T23:40:41.635Z,14.25
2023-05-06T23:43:09.806Z,14.25
2023-05-06T23:45:36.274Z,14.25
2023-05-06T23:48:03.049Z,14.25
2023-05-06T23:50:29.520Z,14.23
2023-05-06T23:52:55.968Z,14.25
2023-05-06T23:55:22.394Z,14.24
2023-05-06T23:57:48.803Z,14.24
